Amsterdam, Missouri
Current Conditions -  °F | °C
As of 3:53 PM on Friday 24 Oct 2014 (Local Time) from KOJC Reporting Station
Clear Clear  
Wind Chill: 75°   Ceiling: Unl
Heat Index: 75°   Visibility: 10mi
Dew Point: 63°   Wind: 12mph
Humidity: 66%   Direction: 210°SSW
Pressure: 29.97"   Gusts: NA
Location:  38.35°N, 94.59°W
Report Text: KOJC 242053Z 21010KT 10SM CLR 24/17 A2997 RMK AO2 SLP141 T02390172 56019
Loading
Personal Weather Stations






























Interactive Weather Map New forecast layout! Learn more

10-Day Weather Forecast

Advertisements
Track Severe Weather on mobile